sensor_id;sensor_type;location;lat;lon;timestamp;P1;durP1;ratioP1;P2;durP2;ratioP2
68940;SDS011;55982;51.476;7.552;2022-09-03T00:02:08;3.83;;;1.98;;
68940;SDS011;55982;51.476;7.552;2022-09-03T00:07:31;3.78;;;1.50;;
68940;SDS011;55982;51.476;7.552;2022-09-03T00:10:07;1.63;;;1.52;;
68940;SDS011;55982;51.476;7.552;2022-09-03T00:12:36;3.90;;;1.77;;
68940;SDS011;55982;51.476;7.552;2022-09-03T00:15:07;2.20;;;1.80;;
68940;SDS011;55982;51.476;7.552;2022-09-03T00:17:40;2.75;;;1.85;;
68940;SDS011;55982;51.476;7.552;2022-09-03T00:20:11;5.18;;;1.75;;
68940;SDS011;55982;51.476;7.552;2022-09-03T00:22:46;2.55;;;1.55;;
68940;SDS011;55982;51.476;7.552;2022-09-03T00:25:16;4.82;;;1.83;;
68940;SDS011;55982;51.476;7.552;2022-09-03T00:27:47;3.88;;;1.83;;
68940;SDS011;55982;51.476;7.552;2022-09-03T00:30:18;2.95;;;1.40;;
68940;SDS011;55982;51.476;7.552;2022-09-03T00:32:53;2.25;;;1.42;;
68940;SDS011;55982;51.476;7.552;2022-09-03T00:35:28;2.10;;;1.70;;
68940;SDS011;55982;51.476;7.552;2022-09-03T00:37:55;1.75;;;1.65;;
68940;SDS011;55982;51.476;7.552;2022-09-03T00:40:29;1.92;;;1.70;;
68940;SDS011;55982;51.476;7.552;2022-09-03T00:45:50;2.80;;;1.38;;
68940;SDS011;55982;51.476;7.552;2022-09-03T00:48:31;1.60;;;1.50;;
68940;SDS011;55982;51.476;7.552;2022-09-03T00:51:20;1.48;;;1.38;;
68940;SDS011;55982;51.476;7.552;2022-09-03T00:56:51;4.63;;;1.40;;
68940;SDS011;55982;51.476;7.552;2022-09-03T01:02:19;1.98;;;1.60;;
68940;SDS011;55982;51.476;7.552;2022-09-03T01:08:01;2.00;;;1.60;;
68940;SDS011;55982;51.476;7.552;2022-09-03T01:16:44;1.55;;;1.35;;
68940;SDS011;55982;51.476;7.552;2022-09-03T01:30:14;2.00;;;1.50;;
68940;SDS011;55982;51.476;7.552;2022-09-03T01:38:54;1.73;;;1.63;;
68940;SDS011;55982;51.476;7.552;2022-09-03T01:44:02;2.78;;;1.40;;
68940;SDS011;55982;51.476;7.552;2022-09-03T01:46:38;3.60;;;1.45;;
68940;SDS011;55982;51.476;7.552;2022-09-03T01:49:10;3.83;;;1.45;;
68940;SDS011;55982;51.476;7.552;2022-09-03T01:51:38;1.77;;;1.40;;
68940;SDS011;55982;51.476;7.552;2022-09-03T01:54:25;2.85;;;1.60;;
68940;SDS011;55982;51.476;7.552;2022-09-03T01:57:04;2.08;;;1.40;;
68940;SDS011;55982;51.476;7.552;2022-09-03T02:02:24;2.47;;;1.58;;
68940;SDS011;55982;51.476;7.552;2022-09-03T02:07:31;1.45;;;1.30;;
68940;SDS011;55982;51.476;7.552;2022-09-03T02:09:59;1.80;;;1.55;;
68940;SDS011;55982;51.476;7.552;2022-09-03T02:12:25;1.70;;;1.60;;
68940;SDS011;55982;51.476;7.552;2022-09-03T02:15:00;2.13;;;1.85;;
68940;SDS011;55982;51.476;7.552;2022-09-03T02:17:30;3.35;;;1.70;;
68940;SDS011;55982;51.476;7.552;2022-09-03T02:19:57;3.92;;;1.80;;
68940;SDS011;55982;51.476;7.552;2022-09-03T02:22:27;2.95;;;1.85;;
68940;SDS011;55982;51.476;7.552;2022-09-03T02:24:53;2.38;;;1.83;;
68940;SDS011;55982;51.476;7.552;2022-09-03T02:27:19;2.90;;;1.70;;
68940;SDS011;55982;51.476;7.552;2022-09-03T02:29:44;2.25;;;1.60;;
68940;SDS011;55982;51.476;7.552;2022-09-03T02:32:10;1.73;;;1.63;;
68940;SDS011;55982;51.476;7.552;2022-09-03T02:34:38;2.22;;;1.80;;
68940;SDS011;55982;51.476;7.552;2022-09-03T02:37:14;2.13;;;1.92;;
68940;SDS011;55982;51.476;7.552;2022-09-03T02:39:42;5.18;;;1.85;;
68940;SDS011;55982;51.476;7.552;2022-09-03T02:42:08;2.92;;;1.83;;
68940;SDS011;55982;51.476;7.552;2022-09-03T02:44:37;3.22;;;1.80;;
68940;SDS011;55982;51.476;7.552;2022-09-03T02:47:17;4.25;;;1.42;;
68940;SDS011;55982;51.476;7.552;2022-09-03T02:49:45;3.00;;;1.77;;
68940;SDS011;55982;51.476;7.552;2022-09-03T02:52:12;2.42;;;1.65;;
68940;SDS011;55982;51.476;7.552;2022-09-03T02:54:37;2.65;;;1.75;;
68940;SDS011;55982;51.476;7.552;2022-09-03T02:57:07;2.75;;;1.70;;
68940;SDS011;55982;51.476;7.552;2022-09-03T02:59:34;2.00;;;1.75;;
68940;SDS011;55982;51.476;7.552;2022-09-03T03:02:00;3.13;;;1.88;;
68940;SDS011;55982;51.476;7.552;2022-09-03T03:04:25;2.13;;;1.70;;
68940;SDS011;55982;51.476;7.552;2022-09-03T03:06:51;7.72;;;1.65;;
68940;SDS011;55982;51.476;7.552;2022-09-03T03:09:17;2.42;;;1.80;;
68940;SDS011;55982;51.476;7.552;2022-09-03T03:11:42;2.08;;;1.50;;
68940;SDS011;55982;51.476;7.552;2022-09-03T03:14:08;3.80;;;1.70;;
68940;SDS011;55982;51.476;7.552;2022-09-03T03:16:34;2.22;;;1.65;;
68940;SDS011;55982;51.476;7.552;2022-09-03T03:19:00;2.60;;;1.80;;
68940;SDS011;55982;51.476;7.552;2022-09-03T03:21:26;1.73;;;1.38;;
68940;SDS011;55982;51.476;7.552;2022-09-03T03:23:51;3.17;;;1.88;;
68940;SDS011;55982;51.476;7.552;2022-09-03T03:26:18;2.22;;;1.70;;
68940;SDS011;55982;51.476;7.552;2022-09-03T03:28:47;2.65;;;1.88;;
68940;SDS011;55982;51.476;7.552;2022-09-03T03:31:15;3.70;;;1.80;;
68940;SDS011;55982;51.476;7.552;2022-09-03T03:33:43;2.75;;;1.58;;
68940;SDS011;55982;51.476;7.552;2022-09-03T03:38:36;4.63;;;1.58;;
68940;SDS011;55982;51.476;7.552;2022-09-03T03:43:34;1.80;;;1.70;;
68940;SDS011;55982;51.476;7.552;2022-09-03T03:46:00;2.85;;;2.00;;
68940;SDS011;55982;51.476;7.552;2022-09-03T03:48:25;8.38;;;1.80;;
68940;SDS011;55982;51.476;7.552;2022-09-03T03:50:51;2.08;;;1.52;;
68940;SDS011;55982;51.476;7.552;2022-09-03T03:53:17;2.00;;;1.50;;
68940;SDS011;55982;51.476;7.552;2022-09-03T03:55:52;2.58;;;1.85;;
68940;SDS011;55982;51.476;7.552;2022-09-03T03:58:19;4.75;;;1.98;;
68940;SDS011;55982;51.476;7.552;2022-09-03T04:00:44;4.15;;;1.73;;
68940;SDS011;55982;51.476;7.552;2022-09-03T04:03:11;3.13;;;1.83;;
68940;SDS011;55982;51.476;7.552;2022-09-03T04:05:37;3.28;;;1.58;;
68940;SDS011;55982;51.476;7.552;2022-09-03T04:08:02;3.45;;;1.70;;
68940;SDS011;55982;51.476;7.552;2022-09-03T04:10:28;2.25;;;1.55;;
68940;SDS011;55982;51.476;7.552;2022-09-03T04:12:53;1.83;;;1.60;;
68940;SDS011;55982;51.476;7.552;2022-09-03T04:15:18;6.25;;;1.65;;
68940;SDS011;55982;51.476;7.552;2022-09-03T04:17:44;2.13;;;1.70;;
68940;SDS011;55982;51.476;7.552;2022-09-03T04:20:09;1.60;;;1.50;;
68940;SDS011;55982;51.476;7.552;2022-09-03T04:22:35;3.70;;;1.88;;
68940;SDS011;55982;51.476;7.552;2022-09-03T04:25:00;1.67;;;1.45;;
68940;SDS011;55982;51.476;7.552;2022-09-03T04:27:26;2.45;;;1.85;;
68940;SDS011;55982;51.476;7.552;2022-09-03T04:29:51;2.72;;;1.80;;
68940;SDS011;55982;51.476;7.552;2022-09-03T04:32:16;2.95;;;1.88;;
68940;SDS011;55982;51.476;7.552;2022-09-03T04:35:00;2.38;;;1.70;;
68940;SDS011;55982;51.476;7.552;2022-09-03T04:37:26;1.80;;;1.50;;
68940;SDS011;55982;51.476;7.552;2022-09-03T04:39:51;2.13;;;1.60;;
68940;SDS011;55982;51.476;7.552;2022-09-03T04:42:18;2.47;;;1.63;;
68940;SDS011;55982;51.476;7.552;2022-09-03T04:44:43;3.78;;;1.70;;
68940;SDS011;55982;51.476;7.552;2022-09-03T04:47:09;2.45;;;1.70;;
68940;SDS011;55982;51.476;7.552;2022-09-03T04:49:34;2.25;;;1.60;;
68940;SDS011;55982;51.476;7.552;2022-09-03T04:51:59;2.20;;;1.80;;
68940;SDS011;55982;51.476;7.552;2022-09-03T04:54:26;4.40;;;1.95;;
68940;SDS011;55982;51.476;7.552;2022-09-03T04:56:51;3.53;;;1.70;;
68940;SDS011;55982;51.476;7.552;2022-09-03T04:59:17;2.90;;;1.70;;
68940;SDS011;55982;51.476;7.552;2022-09-03T05:01:43;1.85;;;1.60;;
68940;SDS011;55982;51.476;7.552;2022-09-03T05:04:08;3.63;;;2.13;;
68940;SDS011;55982;51.476;7.552;2022-09-03T05:06:34;2.83;;;1.33;;
68940;SDS011;55982;51.476;7.552;2022-09-03T05:09:01;4.88;;;1.73;;
68940;SDS011;55982;51.476;7.552;2022-09-03T05:11:28;2.90;;;1.58;;
68940;SDS011;55982;51.476;7.552;2022-09-03T05:13:54;2.38;;;1.73;;
68940;SDS011;55982;51.476;7.552;2022-09-03T05:16:22;2.50;;;1.55;;
68940;SDS011;55982;51.476;7.552;2022-09-03T05:18:50;2.55;;;1.48;;
68940;SDS011;55982;51.476;7.552;2022-09-03T05:21:18;7.05;;;1.80;;
68940;SDS011;55982;51.476;7.552;2022-09-03T05:23:44;5.97;;;1.40;;
68940;SDS011;55982;51.476;7.552;2022-09-03T05:26:13;2.58;;;1.40;;
68940;SDS011;55982;51.476;7.552;2022-09-03T05:28:41;3.05;;;1.50;;
68940;SDS011;55982;51.476;7.552;2022-09-03T05:31:09;2.25;;;1.42;;
68940;SDS011;55982;51.476;7.552;2022-09-03T05:33:43;2.03;;;1.50;;
68940;SDS011;55982;51.476;7.552;2022-09-03T05:36:18;4.65;;;2.83;;
68940;SDS011;55982;51.476;7.552;2022-09-03T05:38:47;3.47;;;1.90;;
68940;SDS011;55982;51.476;7.552;2022-09-03T05:41:13;2.63;;;1.67;;
68940;SDS011;55982;51.476;7.552;2022-09-03T05:43:40;1.50;;;1.30;;
68940;SDS011;55982;51.476;7.552;2022-09-03T05:46:07;4.38;;;2.00;;
68940;SDS011;55982;51.476;7.552;2022-09-03T05:48:35;2.83;;;1.50;;
68940;SDS011;55982;51.476;7.552;2022-09-03T05:51:03;1.90;;;1.48;;
68940;SDS011;55982;51.476;7.552;2022-09-03T05:53:32;1.70;;;1.60;;
68940;SDS011;55982;51.476;7.552;2022-09-03T05:56:08;2.58;;;1.50;;
68940;SDS011;55982;51.476;7.552;2022-09-03T05:58:36;2.78;;;1.42;;
68940;SDS011;55982;51.476;7.552;2022-09-03T06:01:08;2.78;;;1.75;;
68940;SDS011;55982;51.476;7.552;2022-09-03T06:03:38;4.20;;;1.40;;
68940;SDS011;55982;51.476;7.552;2022-09-03T06:06:05;2.78;;;1.33;;
68940;SDS011;55982;51.476;7.552;2022-09-03T06:08:31;5.50;;;2.00;;
68940;SDS011;55982;51.476;7.552;2022-09-03T06:10:57;1.63;;;1.35;;
68940;SDS011;55982;51.476;7.552;2022-09-03T06:13:23;5.22;;;1.60;;
68940;SDS011;55982;51.476;7.552;2022-09-03T06:15:49;3.15;;;1.30;;
68940;SDS011;55982;51.476;7.552;2022-09-03T06:18:14;3.17;;;1.30;;
68940;SDS011;55982;51.476;7.552;2022-09-03T06:20:40;2.70;;;1.42;;
68940;SDS011;55982;51.476;7.552;2022-09-03T06:23:05;2.92;;;1.33;;
68940;SDS011;55982;51.476;7.552;2022-09-03T06:25:30;1.50;;;1.40;;
68940;SDS011;55982;51.476;7.552;2022-09-03T06:27:56;1.30;;;1.20;;
68940;SDS011;55982;51.476;7.552;2022-09-03T06:30:21;3.38;;;1.60;;
68940;SDS011;55982;51.476;7.552;2022-09-03T06:32:48;3.22;;;1.27;;
68940;SDS011;55982;51.476;7.552;2022-09-03T06:35:17;2.85;;;1.50;;
68940;SDS011;55982;51.476;7.552;2022-09-03T06:37:42;6.15;;;1.10;;
68940;SDS011;55982;51.476;7.552;2022-09-03T06:40:09;3.85;;;1.67;;
68940;SDS011;55982;51.476;7.552;2022-09-03T06:42:38;1.75;;;1.25;;
68940;SDS011;55982;51.476;7.552;2022-09-03T06:45:06;2.70;;;1.20;;
68940;SDS011;55982;51.476;7.552;2022-09-03T06:47:32;4.32;;;1.20;;
68940;SDS011;55982;51.476;7.552;2022-09-03T06:49:58;2.50;;;1.25;;
68940;SDS011;55982;51.476;7.552;2022-09-03T06:52:24;2.97;;;1.13;;
68940;SDS011;55982;51.476;7.552;2022-09-03T06:54:50;2.03;;;1.00;;
68940;SDS011;55982;51.476;7.552;2022-09-03T06:57:15;2.35;;;1.27;;
68940;SDS011;55982;51.476;7.552;2022-09-03T06:59:41;1.17;;;1.08;;
68940;SDS011;55982;51.476;7.552;2022-09-03T07:02:07;1.77;;;1.17;;
68940;SDS011;55982;51.476;7.552;2022-09-03T07:04:33;2.03;;;1.30;;
68940;SDS011;55982;51.476;7.552;2022-09-03T07:06:59;1.30;;;1.20;;
68940;SDS011;55982;51.476;7.552;2022-09-03T07:09:25;4.88;;;1.23;;
68940;SDS011;55982;51.476;7.552;2022-09-03T07:11:51;8.10;;;1.17;;
68940;SDS011;55982;51.476;7.552;2022-09-03T07:14:17;3.50;;;1.40;;
68940;SDS011;55982;51.476;7.552;2022-09-03T07:16:43;2.10;;;1.20;;
68940;SDS011;55982;51.476;7.552;2022-09-03T07:19:10;3.95;;;3.08;;
68940;SDS011;55982;51.476;7.552;2022-09-03T07:21:37;4.68;;;1.20;;
68940;SDS011;55982;51.476;7.552;2022-09-03T07:24:05;1.75;;;1.15;;
68940;SDS011;55982;51.476;7.552;2022-09-03T07:26:36;1.38;;;1.10;;
68940;SDS011;55982;51.476;7.552;2022-09-03T07:29:03;2.00;;;1.00;;
68940;SDS011;55982;51.476;7.552;2022-09-03T07:31:38;2.08;;;1.20;;
68940;SDS011;55982;51.476;7.552;2022-09-03T07:34:06;3.92;;;1.02;;
68940;SDS011;55982;51.476;7.552;2022-09-03T07:36:35;2.60;;;1.02;;
68940;SDS011;55982;51.476;7.552;2022-09-03T07:39:15;2.75;;;1.08;;
68940;SDS011;55982;51.476;7.552;2022-09-03T07:41:41;6.03;;;1.23;;
68940;SDS011;55982;51.476;7.552;2022-09-03T07:44:09;4.03;;;1.00;;
68940;SDS011;55982;51.476;7.552;2022-09-03T07:46:37;3.08;;;1.00;;
68940;SDS011;55982;51.476;7.552;2022-09-03T07:49:04;1.83;;;1.02;;
68940;SDS011;55982;51.476;7.552;2022-09-03T07:51:31;1.90;;;0.93;;
68940;SDS011;55982;51.476;7.552;2022-09-03T07:53:58;1.92;;;1.02;;
68940;SDS011;55982;51.476;7.552;2022-09-03T07:56:28;3.33;;;0.90;;
68940;SDS011;55982;51.476;7.552;2022-09-03T07:58:57;3.97;;;0.98;;
68940;SDS011;55982;51.476;7.552;2022-09-03T08:01:24;2.58;;;1.00;;
68940;SDS011;55982;51.476;7.552;2022-09-03T08:03:52;1.67;;;1.10;;
68940;SDS011;55982;51.476;7.552;2022-09-03T08:06:19;2.58;;;0.90;;
68940;SDS011;55982;51.476;7.552;2022-09-03T08:08:47;2.15;;;1.15;;
68940;SDS011;55982;51.476;7.552;2022-09-03T08:11:18;3.13;;;1.15;;
68940;SDS011;55982;51.476;7.552;2022-09-03T08:14:07;3.90;;;1.20;;
68940;SDS011;55982;51.476;7.552;2022-09-03T08:16:34;2.17;;;0.95;;
68940;SDS011;55982;51.476;7.552;2022-09-03T08:19:01;2.58;;;1.30;;
68940;SDS011;55982;51.476;7.552;2022-09-03T08:21:27;5.70;;;1.25;;
68940;SDS011;55982;51.476;7.552;2022-09-03T08:23:53;1.65;;;1.15;;
68940;SDS011;55982;51.476;7.552;2022-09-03T08:26:27;3.38;;;1.20;;
68940;SDS011;55982;51.476;7.552;2022-09-03T08:28:55;2.97;;;1.13;;
68940;SDS011;55982;51.476;7.552;2022-09-03T08:31:21;2.00;;;1.15;;
68940;SDS011;55982;51.476;7.552;2022-09-03T08:33:49;4.20;;;1.27;;
68940;SDS011;55982;51.476;7.552;2022-09-03T08:36:26;1.98;;;1.13;;
68940;SDS011;55982;51.476;7.552;2022-09-03T08:38:57;2.45;;;1.30;;
68940;SDS011;55982;51.476;7.552;2022-09-03T08:52:36;3.60;;;1.50;;
68940;SDS011;55982;51.476;7.552;2022-09-03T09:03:41;2.10;;;1.20;;
68940;SDS011;55982;51.476;7.552;2022-09-03T09:17:13;1.10;;;1.00;;
68940;SDS011;55982;51.476;7.552;2022-09-03T09:22:48;5.30;;;1.13;;
68940;SDS011;55982;51.476;7.552;2022-09-03T09:25:20;3.15;;;1.23;;
68940;SDS011;55982;51.476;7.552;2022-09-03T09:27:54;3.83;;;1.17;;
68940;SDS011;55982;51.476;7.552;2022-09-03T09:30:28;2.45;;;1.17;;
68940;SDS011;55982;51.476;7.552;2022-09-03T09:32:55;2.22;;;1.10;;
68940;SDS011;55982;51.476;7.552;2022-09-03T09:35:21;4.07;;;1.30;;
68940;SDS011;55982;51.476;7.552;2022-09-03T09:42:51;4.00;;;1.20;;
68940;SDS011;55982;51.476;7.552;2022-09-03T09:45:26;2.83;;;1.15;;
68940;SDS011;55982;51.476;7.552;2022-09-03T09:47:52;3.65;;;1.58;;
68940;SDS011;55982;51.476;7.552;2022-09-03T09:50:20;2.60;;;1.25;;
68940;SDS011;55982;51.476;7.552;2022-09-03T09:52:47;4.65;;;1.23;;
68940;SDS011;55982;51.476;7.552;2022-09-03T09:55:16;10.75;;;1.55;;
68940;SDS011;55982;51.476;7.552;2022-09-03T09:57:44;1.50;;;1.40;;
68940;SDS011;55982;51.476;7.552;2022-09-03T10:00:14;1.75;;;1.38;;
68940;SDS011;55982;51.476;7.552;2022-09-03T10:02:48;2.03;;;1.30;;
68940;SDS011;55982;51.476;7.552;2022-09-03T10:05:25;2.47;;;1.20;;
68940;SDS011;55982;51.476;7.552;2022-09-03T10:07:59;1.40;;;1.30;;
68940;SDS011;55982;51.476;7.552;2022-09-03T10:10:29;2.38;;;0.98;;
68940;SDS011;55982;51.476;7.552;2022-09-03T10:15:44;2.28;;;1.20;;
68940;SDS011;55982;51.476;7.552;2022-09-03T10:18:16;6.93;;;1.40;;
68940;SDS011;55982;51.476;7.552;2022-09-03T10:26:29;3.13;;;1.80;;
68940;SDS011;55982;51.476;7.552;2022-09-03T10:28:58;3.75;;;1.38;;
68940;SDS011;55982;51.476;7.552;2022-09-03T10:45:31;1.92;;;1.10;;
68940;SDS011;55982;51.476;7.552;2022-09-03T10:48:09;2.75;;;1.13;;
68940;SDS011;55982;51.476;7.552;2022-09-03T10:50:47;5.45;;;1.38;;
68940;SDS011;55982;51.476;7.552;2022-09-03T10:56:34;1.42;;;1.33;;
68940;SDS011;55982;51.476;7.552;2022-09-03T11:04:45;2.47;;;1.35;;
68940;SDS011;55982;51.476;7.552;2022-09-03T11:07:23;1.90;;;1.38;;
68940;SDS011;55982;51.476;7.552;2022-09-03T11:13:05;2.60;;;1.50;;
68940;SDS011;55982;51.476;7.552;2022-09-03T11:15:54;4.95;;;1.50;;
68940;SDS011;55982;51.476;7.552;2022-09-03T11:18:30;3.83;;;1.60;;
68940;SDS011;55982;51.476;7.552;2022-09-03T11:21:03;3.05;;;1.50;;
68940;SDS011;55982;51.476;7.552;2022-09-03T11:23:31;3.58;;;2.22;;
68940;SDS011;55982;51.476;7.552;2022-09-03T11:26:03;5.03;;;1.85;;
68940;SDS011;55982;51.476;7.552;2022-09-03T11:33:50;2.50;;;1.90;;
68940;SDS011;55982;51.476;7.552;2022-09-03T11:36:25;2.53;;;1.83;;
68940;SDS011;55982;51.476;7.552;2022-09-03T11:38:54;2.95;;;1.75;;
68940;SDS011;55982;51.476;7.552;2022-09-03T11:41:27;2.97;;;1.60;;
68940;SDS011;55982;51.476;7.552;2022-09-03T11:44:09;2.03;;;1.83;;
68940;SDS011;55982;51.476;7.552;2022-09-03T11:46:51;3.28;;;1.48;;
68940;SDS011;55982;51.476;7.552;2022-09-03T11:49:26;2.10;;;1.90;;
68940;SDS011;55982;51.476;7.552;2022-09-03T11:52:01;1.85;;;1.75;;
68940;SDS011;55982;51.476;7.552;2022-09-03T11:54:31;3.83;;;1.58;;
68940;SDS011;55982;51.476;7.552;2022-09-03T11:57:21;2.03;;;1.80;;
68940;SDS011;55982;51.476;7.552;2022-09-03T12:00:05;2.10;;;1.50;;
68940;SDS011;55982;51.476;7.552;2022-09-03T12:02:43;1.80;;;1.50;;
68940;SDS011;55982;51.476;7.552;2022-09-03T12:18:45;4.55;;;1.60;;
68940;SDS011;55982;51.476;7.552;2022-09-03T12:21:16;3.97;;;1.67;;
68940;SDS011;55982;51.476;7.552;2022-09-03T12:23:50;4.95;;;1.88;;
68940;SDS011;55982;51.476;7.552;2022-09-03T12:26:25;3.47;;;1.70;;
68940;SDS011;55982;51.476;7.552;2022-09-03T12:28:57;4.00;;;1.45;;
68940;SDS011;55982;51.476;7.552;2022-09-03T12:31:29;3.42;;;1.60;;
68940;SDS011;55982;51.476;7.552;2022-09-03T12:34:04;2.63;;;1.42;;
68940;SDS011;55982;51.476;7.552;2022-09-03T12:36:41;3.17;;;1.80;;
68940;SDS011;55982;51.476;7.552;2022-09-03T12:39:19;2.67;;;1.55;;
68940;SDS011;55982;51.476;7.552;2022-09-03T12:44:27;4.10;;;1.70;;
68940;SDS011;55982;51.476;7.552;2022-09-03T12:47:14;3.13;;;1.60;;
68940;SDS011;55982;51.476;7.552;2022-09-03T12:49:43;2.70;;;1.50;;
68940;SDS011;55982;51.476;7.552;2022-09-03T12:55:02;2.47;;;1.73;;
68940;SDS011;55982;51.476;7.552;2022-09-03T13:00:08;2.88;;;1.90;;
68940;SDS011;55982;51.476;7.552;2022-09-03T13:05:28;4.60;;;1.90;;
68940;SDS011;55982;51.476;7.552;2022-09-03T13:08:00;4.20;;;2.13;;
68940;SDS011;55982;51.476;7.552;2022-09-03T13:10:32;2.45;;;2.08;;
68940;SDS011;55982;51.476;7.552;2022-09-03T13:13:07;4.63;;;2.00;;
68940;SDS011;55982;51.476;7.552;2022-09-03T13:18:30;3.20;;;1.90;;
68940;SDS011;55982;51.476;7.552;2022-09-03T13:26:39;3.47;;;1.95;;
68940;SDS011;55982;51.476;7.552;2022-09-03T13:29:26;2.22;;;1.95;;
68940;SDS011;55982;51.476;7.552;2022-09-03T13:32:09;5.82;;;1.92;;
68940;SDS011;55982;51.476;7.552;2022-09-03T13:34:39;2.67;;;1.85;;
68940;SDS011;55982;51.476;7.552;2022-09-03T13:37:34;2.13;;;1.92;;
68940;SDS011;55982;51.476;7.552;2022-09-03T13:40:11;2.30;;;1.90;;
68940;SDS011;55982;51.476;7.552;2022-09-03T13:42:54;2.58;;;2.00;;
68940;SDS011;55982;51.476;7.552;2022-09-03T13:45:36;1.90;;;1.80;;
68940;SDS011;55982;51.476;7.552;2022-09-03T13:48:10;2.53;;;2.17;;
68940;SDS011;55982;51.476;7.552;2022-09-03T13:53:56;2.47;;;1.90;;
68940;SDS011;55982;51.476;7.552;2022-09-03T13:56:31;5.00;;;1.83;;
68940;SDS011;55982;51.476;7.552;2022-09-03T13:59:32;2.63;;;2.00;;
68940;SDS011;55982;51.476;7.552;2022-09-03T14:05:12;2.83;;;1.90;;
68940;SDS011;55982;51.476;7.552;2022-09-03T14:10:32;2.03;;;1.83;;
68940;SDS011;55982;51.476;7.552;2022-09-03T14:15:42;5.57;;;1.88;;
68940;SDS011;55982;51.476;7.552;2022-09-03T14:19:08;2.25;;;2.05;;
68940;SDS011;55982;51.476;7.552;2022-09-03T14:26:58;3.33;;;1.80;;
68940;SDS011;55982;51.476;7.552;2022-09-03T14:29:27;1.70;;;1.60;;
68940;SDS011;55982;51.476;7.552;2022-09-03T15:10:25;2.45;;;1.70;;
68940;SDS011;55982;51.476;7.552;2022-09-03T15:13:20;4.50;;;1.65;;
68940;SDS011;55982;51.476;7.552;2022-09-03T15:27:09;1.52;;;1.42;;
68940;SDS011;55982;51.476;7.552;2022-09-03T15:30:19;2.08;;;1.60;;
68940;SDS011;55982;51.476;7.552;2022-09-03T15:38:32;1.65;;;1.55;;
68940;SDS011;55982;51.476;7.552;2022-09-03T15:41:09;3.45;;;1.52;;
68940;SDS011;55982;51.476;7.552;2022-09-03T15:43:42;3.38;;;1.50;;
68940;SDS011;55982;51.476;7.552;2022-09-03T15:46:29;1.42;;;1.33;;
68940;SDS011;55982;51.476;7.552;2022-09-03T15:57:54;1.50;;;1.40;;
68940;SDS011;55982;51.476;7.552;2022-09-03T16:00:32;2.03;;;1.50;;
68940;SDS011;55982;51.476;7.552;2022-09-03T16:03:15;3.53;;;1.52;;
68940;SDS011;55982;51.476;7.552;2022-09-03T16:09:24;3.53;;;1.52;;
68940;SDS011;55982;51.476;7.552;2022-09-03T16:14:45;5.30;;;1.70;;
68940;SDS011;55982;51.476;7.552;2022-09-03T16:17:22;1.67;;;1.58;;
68940;SDS011;55982;51.476;7.552;2022-09-03T16:23:15;2.63;;;1.50;;
68940;SDS011;55982;51.476;7.552;2022-09-03T16:28:15;1.85;;;1.52;;
68940;SDS011;55982;51.476;7.552;2022-09-03T16:36:50;2.15;;;1.73;;
68940;SDS011;55982;51.476;7.552;2022-09-03T16:39:39;2.03;;;1.30;;
68940;SDS011;55982;51.476;7.552;2022-09-03T16:42:12;3.85;;;1.75;;
68940;SDS011;55982;51.476;7.552;2022-09-03T16:44:53;1.80;;;1.70;;
68940;SDS011;55982;51.476;7.552;2022-09-03T16:59:37;2.05;;;1.50;;
68940;SDS011;55982;51.476;7.552;2022-09-03T17:02:27;6.82;;;2.45;;
68940;SDS011;55982;51.476;7.552;2022-09-03T17:16:12;3.80;;;1.60;;
68940;SDS011;55982;51.476;7.552;2022-09-03T17:18:52;2.33;;;1.80;;
68940;SDS011;55982;51.476;7.552;2022-09-03T17:35:20;2.28;;;1.50;;
68940;SDS011;55982;51.476;7.552;2022-09-03T17:38:07;2.30;;;1.77;;
68940;SDS011;55982;51.476;7.552;2022-09-03T17:40:40;4.75;;;1.80;;
68940;SDS011;55982;51.476;7.552;2022-09-03T17:43:21;11.63;;;2.47;;
68940;SDS011;55982;51.476;7.552;2022-09-03T17:48:46;4.05;;;2.05;;
68940;SDS011;55982;51.476;7.552;2022-09-03T17:51:32;2.10;;;1.85;;
68940;SDS011;55982;51.476;7.552;2022-09-03T17:57:01;2.08;;;1.88;;
68940;SDS011;55982;51.476;7.552;2022-09-03T17:59:54;2.38;;;1.80;;
68940;SDS011;55982;51.476;7.552;2022-09-03T18:16:25;2.45;;;1.88;;
68940;SDS011;55982;51.476;7.552;2022-09-03T18:21:53;4.20;;;2.15;;
68940;SDS011;55982;51.476;7.552;2022-09-03T18:24:50;3.00;;;1.90;;
68940;SDS011;55982;51.476;7.552;2022-09-03T18:30:24;3.13;;;1.80;;
68940;SDS011;55982;51.476;7.552;2022-09-03T18:33:09;5.20;;;2.28;;
68940;SDS011;55982;51.476;7.552;2022-09-03T18:35:53;2.85;;;1.90;;
68940;SDS011;55982;51.476;7.552;2022-09-03T18:38:38;3.42;;;2.10;;
68940;SDS011;55982;51.476;7.552;2022-09-03T18:41:29;2.65;;;2.00;;
68940;SDS011;55982;51.476;7.552;2022-09-03T18:59:26;3.78;;;2.17;;
68940;SDS011;55982;51.476;7.552;2022-09-03T19:02:28;5.32;;;2.22;;
68940;SDS011;55982;51.476;7.552;2022-09-03T19:05:18;4.03;;;2.85;;
68940;SDS011;55982;51.476;7.552;2022-09-03T19:08:19;3.35;;;2.15;;
68940;SDS011;55982;51.476;7.552;2022-09-03T19:14:02;4.43;;;2.03;;
68940;SDS011;55982;51.476;7.552;2022-09-03T19:17:05;3.20;;;1.90;;
68940;SDS011;55982;51.476;7.552;2022-09-03T19:20:04;2.55;;;2.03;;
68940;SDS011;55982;51.476;7.552;2022-09-03T19:22:56;3.40;;;2.47;;
68940;SDS011;55982;51.476;7.552;2022-09-03T19:25:41;4.35;;;2.08;;
68940;SDS011;55982;51.476;7.552;2022-09-03T19:28:28;3.33;;;2.00;;
68940;SDS011;55982;51.476;7.552;2022-09-03T19:37:22;6.15;;;2.67;;
68940;SDS011;55982;51.476;7.552;2022-09-03T19:55:59;4.10;;;2.60;;
68940;SDS011;55982;51.476;7.552;2022-09-03T19:58:47;3.03;;;2.33;;
68940;SDS011;55982;51.476;7.552;2022-09-03T20:01:37;3.65;;;2.40;;
68940;SDS011;55982;51.476;7.552;2022-09-03T20:04:31;4.18;;;2.35;;
68940;SDS011;55982;51.476;7.552;2022-09-03T20:10:03;4.03;;;2.58;;
68940;SDS011;55982;51.476;7.552;2022-09-03T20:12:53;4.65;;;2.75;;
68940;SDS011;55982;51.476;7.552;2022-09-03T20:24:09;7.28;;;2.70;;
68940;SDS011;55982;51.476;7.552;2022-09-03T20:40:45;3.63;;;2.70;;
68940;SDS011;55982;51.476;7.552;2022-09-03T20:43:26;3.05;;;2.60;;
68940;SDS011;55982;51.476;7.552;2022-09-03T20:52:12;3.00;;;2.60;;
68940;SDS011;55982;51.476;7.552;2022-09-03T20:55:19;3.35;;;2.63;;
68940;SDS011;55982;51.476;7.552;2022-09-03T21:03:17;3.28;;;2.58;;
68940;SDS011;55982;51.476;7.552;2022-09-03T21:11:14;4.43;;;2.75;;
68940;SDS011;55982;51.476;7.552;2022-09-03T21:16:27;3.08;;;2.78;;
68940;SDS011;55982;51.476;7.552;2022-09-03T21:21:55;4.97;;;3.08;;
68940;SDS011;55982;51.476;7.552;2022-09-03T21:24:30;3.28;;;2.63;;
68940;SDS011;55982;51.476;7.552;2022-09-03T21:30:01;3.15;;;2.85;;
68940;SDS011;55982;51.476;7.552;2022-09-03T21:32:49;3.55;;;2.65;;
68940;SDS011;55982;51.476;7.552;2022-09-03T21:38:35;3.05;;;2.63;;
68940;SDS011;55982;51.476;7.552;2022-09-03T21:43:24;3.63;;;2.63;;
68940;SDS011;55982;51.476;7.552;2022-09-03T21:46:06;7.97;;;2.60;;
68940;SDS011;55982;51.476;7.552;2022-09-03T21:48:41;4.25;;;3.03;;
68940;SDS011;55982;51.476;7.552;2022-09-03T21:53:54;2.90;;;2.67;;
68940;SDS011;55982;51.476;7.552;2022-09-03T21:56:57;5.55;;;3.30;;
68940;SDS011;55982;51.476;7.552;2022-09-03T22:01:59;3.38;;;3.10;;
68940;SDS011;55982;51.476;7.552;2022-09-03T22:04:32;4.22;;;3.42;;
68940;SDS011;55982;51.476;7.552;2022-09-03T22:07:22;3.65;;;3.17;;
68940;SDS011;55982;51.476;7.552;2022-09-03T22:15:33;8.25;;;3.70;;
68940;SDS011;55982;51.476;7.552;2022-09-03T22:20:50;4.30;;;3.22;;
68940;SDS011;55982;51.476;7.552;2022-09-03T22:23:43;4.72;;;3.30;;
68940;SDS011;55982;51.476;7.552;2022-09-03T22:26:23;8.48;;;3.00;;
68940;SDS011;55982;51.476;7.552;2022-09-03T22:31:41;6.47;;;3.63;;
68940;SDS011;55982;51.476;7.552;2022-09-03T22:34:35;3.50;;;3.20;;
68940;SDS011;55982;51.476;7.552;2022-09-03T22:37:14;5.22;;;3.83;;
68940;SDS011;55982;51.476;7.552;2022-09-03T22:39:44;4.47;;;3.15;;
68940;SDS011;55982;51.476;7.552;2022-09-03T22:51:06;6.55;;;3.30;;